Latest Weather Observations for Rutherglen RS

IDV60801

Issued at 8:05 pm EDT Friday 28 November 2014 (issued every 30 minutes, with the page automatically refreshed every 10 minutes)

About weather observations | Map of weather stations | Latest weather observations for VIC | Other Formats
Station Details ID: 082039 Name: RUTHERGLEN RESEARCH Lat: -36.10 Lon: 146.51 Height: 175.0 m
Data from the previous 72 hours. | See also: Recent months at Rutherglen RS
Date/Time
EDT
Temp
°C
App
Temp
°C
Dew
Point
Rel
Hum
%
Delta-T
°C
Wind Press
QNH
hPa
Press
MSL
hPa
Rain
since 9 am
mm
Dir
 
Spd
km/h
Gust
km/h
Spd
kts
Gust
kts
28/08:00pm 23.4 21.5 9.0 40 7.8 SE 9 13 5 7 - - 0.0
28/07:30pm 27.1 25.5 8.0 30 10.4 SE 6 7 3 4 - - 0.0
28/07:00pm 28.2 26.4 8.0 28 11.0 ESE 7 9 4 5 - - 0.0
28/06:30pm 29.1 26.3 5.2 22 12.5 SE 9 13 5 7 - - 0.0
28/06:00pm 29.5 26.4 5.6 22 12.6 SSE 11 20 6 11 - - 0.0
28/05:30pm 29.6 27.6 6.9 24 12.3 E 7 13 4 7 - - 0.0
28/05:00pm 28.6 26.4 5.5 23 12.1 ESE 6 11 3 6 - - 0.0
28/04:30pm 29.3 27.4 6.7 24 12.1 NNW 6 13 3 7 - - 0.0
28/04:00pm 30.1 25.8 5.4 21 13.0 W 17 22 9 12 - - 0.0
28/03:30pm 29.4 26.5 6.7 24 12.2 E 11 19 6 10 - - 0.0
28/03:00pm 28.8 27.0 7.9 27 11.4 W 7 15 4 8 - - 0.0
28/02:30pm 28.6 26.0 7.8 27 11.3 NNW 11 19 6 10 - - 0.0
28/02:00pm 27.9 25.2 7.2 27 11.1 W 11 20 6 11 - - 0.0
28/01:30pm 27.4 25.3 8.3 30 10.4 WNW 9 17 5 9 - - 0.0
28/01:00pm 27.0 24.7 7.5 29 10.5 NNW 9 24 5 13 - - 0.0
28/12:30pm 27.4 24.3 7.3 28 10.8 NNE 13 22 7 12 - - 0.0
28/12:00pm 26.9 24.4 9.7 34 9.6 E 13 24 7 13 - - 0.0
28/11:30am 25.5 23.1 10.1 38 8.6 ENE 13 20 7 11 - - 0.0
28/11:00am 24.9 21.9 10.7 40 8.0 ENE 17 24 9 13 - - 0.0
28/10:30am 23.6 21.9 11.3 46 6.9 NE 11 24 6 13 - - 0.0
28/10:00am 22.9 20.8 11.3 48 6.5 NE 13 20 7 11 - - 0.0
28/09:30am 21.7 20.1 11.7 53 5.6 NE 11 20 6 11 - - 0.0
28/09:00am 20.4 18.4 11.6 57 4.9 NE 13 19 7 10 - - 0.0
28/08:30am 19.5 17.8 11.3 59 4.5 NE 11 17 6 9 - - 0.0
28/08:00am 18.5 17.3 11.6 64 3.8 NE 9 15 5 8 - - 0.0
28/07:30am 16.0 15.7 12.7 81 1.8 SSE 6 7 3 4 - - 0.0
28/07:00am 13.9 14.3 12.6 92 0.7 SSE 2 6 1 3 - - 0.0
28/06:30am 10.5 9.3 10.3 99 0.1 SE 7 11 4 6 - - 0.0
28/06:00am 9.1 7.6 9.0 99 0.0 E 7 9 4 5 - - 0.0
28/05:30am 10.6 9.2 8.9 89 0.8 ENE 6 7 3 4 - - 0.0
28/05:00am 9.4 8.1 9.3 99 0.0 NE 6 7 3 4 - - 0.0
28/04:30am 9.4 7.9 9.3 99 0.0 ENE 7 7 4 4 - - 0.0
28/04:00am 9.1 7.7 9.0 99 0.0 E 6 7 3 4 - - 0.0
28/03:30am 9.1 7.6 8.6 97 0.2 E 6 7 3 4 - - 0.0
28/03:00am 10.4 9.4 10.2 99 0.1 N 6 13 3 7 - - 0.0
28/02:30am 9.9 9.1 9.6 98 0.2 N 4 6 2 3 - - 0.0
28/02:00am 10.1 10.1 9.9 99 0.1 CALM 0 0 0 0 - - 0.0
28/01:30am 10.3 9.5 9.5 95 0.4 ENE 4 7 2 4 - - 0.0
28/01:00am 11.3 11.3 9.7 90 0.8 CALM 0 0 0 0 - - 0.0
28/12:30am 12.1 11.8 8.8 80 1.7 CALM 0 0 0 0 - - 0.0
28/12:00am 12.6 12.3 10.1 85 1.3 E 2 6 1 3 - - 0.0
 
Date/Time
EDT
Temp
°C
App
Temp
°C
Dew
Point
Rel
Hum
%
Delta-T
°C
Wind Press
QNH
hPa
Press
MSL
hPa
Rain
since 9 am
mm
Dir
 
Spd
km/h
Gust
km/h
Spd
kts
Gust
kts
27/11:30pm 12.8 12.9 10.0 83 1.5 CALM 0 7 0 4 - - 0.0
27/11:00pm 13.6 11.9 8.4 71 2.6 W 7 9 4 5 - - 0.0
27/10:30pm 14.1 13.6 9.3 73 2.5 W 2 17 1 9 - - 0.0
27/10:00pm 15.4 15.2 9.1 66 3.3 CALM 0 0 0 0 - - 0.0
27/09:30pm 16.7 16.5 8.9 60 4.1 CALM 0 4 0 2 - - 0.0
27/09:00pm 18.8 18.2 7.3 47 5.9 CALM 0 0 0 0 - - 0.0
27/08:30pm 20.6 19.0 8.6 46 6.3 E 7 7 4 4 - - 0.0
27/08:00pm 24.3 22.0 5.6 30 9.6 SW 7 9 4 5 - - 0.0
27/07:30pm 26.3 23.4 4.7 25 11.0 SW 9 13 5 7 - - 0.0
27/07:00pm 27.2 24.3 6.6 27 10.9 SSW 11 17 6 9 - - 0.0
27/06:30pm 27.8 24.8 7.6 28 10.9 S 13 28 7 15 - - 0.0
27/06:00pm 28.3 25.8 8.1 28 11.1 SSW 11 15 6 8 - - 0.0
27/05:30pm 28.1 25.7 6.8 26 11.4 N 9 11 5 6 - - 0.0
27/05:00pm 28.2 26.2 6.9 26 11.4 WNW 7 13 4 7 - - 0.0
27/04:30pm 28.1 25.4 7.4 27 11.2 ESE 11 22 6 12 - - 0.0
27/04:00pm 28.6 25.7 8.3 28 11.2 S 13 22 7 12 - - 0.0
27/03:30pm 27.6 24.0 6.9 27 11.1 SSW 15 22 8 12 - - 0.0
27/03:00pm 28.1 25.8 7.4 27 11.2 ESE 9 17 5 9 - - 0.0
27/02:30pm 26.7 23.2 7.2 29 10.4 W 15 20 8 11 - - 0.0
27/02:00pm 26.8 25.3 9.2 33 9.7 SSW 7 13 4 7 - - 0.0
27/01:30pm 27.1 25.2 9.0 32 10.0 SE 9 20 5 11 - - 0.0
27/01:00pm 25.7 23.2 8.2 33 9.5 SE 11 17 6 9 - - 0.0
27/12:30pm 25.7 24.2 9.1 35 9.1 N 7 15 4 8 - - 0.0
27/12:00pm 25.2 23.1 9.9 38 8.5 E 11 19 6 10 - - 0.0
27/11:30am 24.5 23.2 11.1 43 7.6 NNE 9 17 5 9 - - 0.0
27/11:00am 23.0 21.2 10.8 46 6.8 N 11 15 6 8 - - 0.0
27/10:30am 23.7 22.4 11.4 46 7.0 NNE 9 20 5 11 - - 0.0
27/10:00am 22.4 20.9 10.5 47 6.6 NNE 9 17 5 9 - - 0.0
27/09:30am 21.3 20.1 10.2 49 6.1 NNE 7 13 4 7 - - 0.0
27/09:00am 19.8 18.9 10.8 56 4.9 ENE 6 13 3 7 - - 0.0
27/08:30am 19.0 18.7 11.6 62 4.1 NE 4 7 2 4 - - 0.0
27/08:00am 16.2 15.4 10.9 71 2.9 S 6 7 3 4 - - 0.0
27/07:30am 14.5 14.4 10.9 79 1.9 S 2 6 1 3 - - 0.0
27/07:00am 12.0 12.2 10.7 92 0.7 CALM 0 0 0 0 - - 0.0
27/06:30am 9.3 9.1 9.2 99 0.0 CALM 0 0 0 0 - - 0.0
27/06:00am 8.4 8.0 8.3 99 0.0 CALM 0 0 0 0 - - 0.0
27/05:30am 9.4 7.9 8.5 94 0.4 SW 6 7 3 4 - - 0.0
27/05:00am 9.3 7.1 7.9 91 0.7 SW 9 9 5 5 - - 0.0
27/04:30am 10.2 8.2 8.6 90 0.8 WSW 9 9 5 5 - - 0.0
27/04:00am 10.2 8.2 8.5 89 0.8 WSW 9 13 5 7 - - 0.0
27/03:30am 10.8 8.8 8.7 87 1.0 SW 9 13 5 7 - - 0.0
27/03:00am 11.4 9.7 8.3 81 1.5 SW 7 9 4 5 - - 0.0
27/02:30am 12.7 10.7 8.6 76 2.1 SSW 9 11 5 6 - - 0.0
27/02:00am 13.0 11.3 8.3 73 2.4 SSW 7 9 4 5 - - 0.0
27/01:30am 13.9 11.9 8.5 70 2.7 S 9 15 5 8 - - 0.0
27/01:00am 14.3 12.3 8.5 68 2.9 SSW 9 15 5 8 - - 0.0
27/12:30am 14.7 12.6 8.4 66 3.2 SSW 9 13 5 7 - - 0.0
27/12:00am 14.7 12.7 8.6 67 3.1 SSW 9 13 5 7 - - 0.0
 
Date/Time
EDT
Temp
°C
App
Temp
°C
Dew
Point
Rel
Hum
%
Delta-T
°C
Wind Press
QNH
hPa
Press
MSL
hPa
Rain
since 9 am
mm
Dir
 
Spd
km/h
Gust
km/h
Spd
kts
Gust
kts
26/11:30pm 14.7 12.0 8.9 68 3.0 SW 13 17 7 9 - - 0.0
26/11:00pm 15.0 12.6 8.7 66 3.2 SW 11 17 6 9 - - 0.0
26/10:30pm 16.3 14.0 9.0 62 3.8 SW 11 22 6 12 - - 0.0
26/10:00pm 17.2 12.7 8.6 57 4.5 SW 22 30 12 16 - - 0.0
26/09:30pm 18.0 13.9 8.8 55 4.8 SW 20 28 11 15 - - 0.0
26/09:00pm 18.7 14.9 9.2 54 5.0 SW 19 28 10 15 - - 0.0
26/08:30pm 19.2 15.8 9.1 52 5.3 SW 17 24 9 13 - - 0.0
26/08:00pm 20.1 16.7 9.1 49 5.9 SW 17 28 9 15 - - 0.0
26/07:30pm 21.7 17.2 8.6 43 7.0 SW 22 33 12 18 - - 0.0
26/07:00pm 23.0 18.6 7.5 37 8.1 SW 20 33 11 18 - - 0.0
26/06:30pm 24.0 19.6 7.2 34 8.8 SW 20 32 11 17 - - 0.0
26/06:00pm 24.9 20.5 6.6 31 9.6 SW 19 22 10 12 - - 0.0
26/05:30pm 25.4 20.9 6.1 29 10.0 WSW 19 24 10 13 - - 0.0
26/05:00pm 25.2 21.8 5.9 29 10.0 SSW 13 20 7 11 - - 0.0
26/04:30pm 25.1 22.1 5.8 29 10.0 S 11 17 6 9 - - 0.0
26/04:00pm 24.8 18.9 4.0 26 10.4 SW 24 33 13 18 - - 0.0
26/03:30pm 24.8 19.9 4.0 26 10.4 SW 19 30 10 16 - - 0.0
26/03:00pm 24.9 20.8 4.6 27 10.2 SW 15 24 8 13 - - 0.0
26/02:30pm 24.3 19.6 5.1 29 9.7 SSW 19 26 10 14 - - 0.0
26/02:00pm 24.0 19.2 5.4 30 9.5 WSW 20 33 11 18 - - 0.0
26/01:30pm 23.2 18.8 4.7 30 9.2 SW 17 28 9 15 - - 0.0
26/01:00pm 23.2 19.0 5.6 32 8.9 WSW 17 24 9 13 - - 0.0
26/12:30pm 23.1 18.4 6.0 33 8.8 WSW 20 32 11 17 - - 0.0
26/12:00pm 22.4 18.4 6.6 36 8.1 W 17 22 9 12 - - 0.0
26/11:30am 21.6 17.8 5.9 36 7.9 SW 15 26 8 14 - - 0.0
26/11:00am 21.7 18.0 4.7 33 8.4 SSW 13 24 7 13 - - 0.0
26/10:30am 20.7 17.8 6.6 40 7.2 WSW 11 17 6 9 - - 0.0
26/10:00am 20.0 17.8 8.0 46 6.3 S 9 17 5 9 - - 0.0
26/09:30am 19.3 17.4 7.4 46 6.1 E 7 13 4 7 - - 0.0
26/09:00am 17.8 16.0 7.0 49 5.4 NNE 6 9 3 5 - - 0.0
26/08:30am 17.4 15.9 9.1 58 4.3 ENE 7 11 4 6 - - 0.0
26/08:00am 15.6 15.1 10.6 72 2.7 E 4 6 2 3 - - 0.0
26/07:30am 12.8 12.9 10.3 85 1.3 CALM 0 0 0 0 - - 0.0
26/07:00am 9.4 9.3 9.4 100 0.0 CALM 0 0 0 0 - - 0.0
26/06:30am 6.7 5.9 6.7 100 0.0 CALM 0 0 0 0 - - 0.0
26/06:00am 6.1 5.2 6.1 100 0.0 CALM 0 0 0 0 - - 0.0
26/05:30am 6.0 5.1 6.0 100 0.0 CALM 0 0 0 0 - - 0.0
26/05:00am 6.3 5.5 6.3 100 0.0 CALM 0 0 0 0 - - 0.0
26/04:30am 6.7 5.9 6.7 100 0.0 CALM 0 0 0 0 - - 0.0
26/04:00am 7.1 5.7 7.1 100 0.0 WSW 4 6 2 3 - - 0.0
26/03:30am 6.9 6.2 6.9 100 0.0 CALM 0 0 0 0 - - 0.0
26/03:00am 7.3 6.3 7.3 100 0.0 SSE 2 6 1 3 - - 0.0
26/02:30am 7.4 6.0 7.4 100 0.0 SSE 4 7 2 4 - - 0.0
26/02:00am 7.3 6.7 7.3 100 0.0 CALM 0 0 0 0 - - 0.0
26/01:30am 8.0 7.5 8.0 100 0.0 CALM 0 0 0 0 - - 0.0
26/01:00am 8.0 7.5 8.0 100 0.0 CALM 0 0 0 0 - - 0.0
26/12:30am 8.9 7.5 8.9 100 0.0 E 6 6 3 3 - - 0.0
26/12:00am 9.1 8.9 9.1 100 0.0 CALM 0 0 0 0 - - 0.0
 
Date/Time
EDT
Temp
°C
App
Temp
°C
Dew
Point
Rel
Hum
%
Delta-T
°C
Wind Press
QNH
hPa
Press
MSL
hPa
Rain
since 9 am
mm
Dir
 
Spd
km/h
Gust
km/h
Spd
kts
Gust
kts
25/11:30pm 8.9 8.6 8.8 99 0.0 CALM 0 0 0 0 - - 0.0
25/11:00pm 9.4 8.4 8.8 96 0.3 E 4 6 2 3 - - 0.0
25/10:30pm 10.5 9.2 9.1 91 0.7 E 6 6 3 3 - - 0.0
25/10:00pm 10.9 10.6 8.7 86 1.1 CALM 0 0 0 0 - - 0.0
25/09:30pm 11.9 11.6 8.7 81 1.6 CALM 0 0 0 0 - - 0.0
25/09:00pm 14.4 13.8 7.5 63 3.4 CALM 0 0 0 0 - - 0.0
25/08:30pm 15.6 13.8 5.5 51 4.9 W 4 7 2 4 - - 0.0

Other Formats:

Comma delimited format used in spreadsheet applications
http://www.bom.gov.au/fwo/IDV60801/IDV60801.95837.axf

JavaScript Object Notation format (JSON) in row-major order
http://www.bom.gov.au/fwo/IDV60801/IDV60801.95837.json